sensor_id;sensor_type;location;lat;lon;timestamp;temperature;humidity
67196;DHT22;54122;53.538;49.366;2023-08-12T00:00:21;16.90;59.60
67196;DHT22;54122;53.538;49.366;2023-08-12T00:02:49;16.80;59.70
67196;DHT22;54122;53.538;49.366;2023-08-12T00:05:15;16.70;60.00
67196;DHT22;54122;53.538;49.366;2023-08-12T00:07:41;16.60;60.10
67196;DHT22;54122;53.538;49.366;2023-08-12T00:10:09;16.60;60.50
67196;DHT22;54122;53.538;49.366;2023-08-12T00:12:35;16.50;60.70
67196;DHT22;54122;53.538;49.366;2023-08-12T00:15:02;16.50;61.30
67196;DHT22;54122;53.538;49.366;2023-08-12T00:17:30;16.40;61.30
67196;DHT22;54122;53.538;49.366;2023-08-12T00:19:56;16.40;61.50
67196;DHT22;54122;53.538;49.366;2023-08-12T00:22:22;16.30;61.90
67196;DHT22;54122;53.538;49.366;2023-08-12T00:24:48;16.30;63.00
67196;DHT22;54122;53.538;49.366;2023-08-12T00:27:15;16.20;61.90
67196;DHT22;54122;53.538;49.366;2023-08-12T00:29:41;16.20;62.70
67196;DHT22;54122;53.538;49.366;2023-08-12T00:32:08;16.20;62.40
67196;DHT22;54122;53.538;49.366;2023-08-12T00:34:35;16.10;62.60
67196;DHT22;54122;53.538;49.366;2023-08-12T00:37:01;16.10;62.70
67196;DHT22;54122;53.538;49.366;2023-08-12T00:39:27;16.00;62.90
67196;DHT22;54122;53.538;49.366;2023-08-12T00:41:53;15.90;62.90
67196;DHT22;54122;53.538;49.366;2023-08-12T00:44:20;15.90;63.10
67196;DHT22;54122;53.538;49.366;2023-08-12T00:46:46;15.90;63.40
67196;DHT22;54122;53.538;49.366;2023-08-12T00:49:12;15.90;63.50
67196;DHT22;54122;53.538;49.366;2023-08-12T00:51:41;15.80;63.70
67196;DHT22;54122;53.538;49.366;2023-08-12T00:54:10;15.80;63.70
67196;DHT22;54122;53.538;49.366;2023-08-12T00:56:38;15.80;64.00
67196;DHT22;54122;53.538;49.366;2023-08-12T00:59:07;15.80;64.10
67196;DHT22;54122;53.538;49.366;2023-08-12T01:01:39;15.70;64.20
67196;DHT22;54122;53.538;49.366;2023-08-12T01:04:06;15.70;64.50
67196;DHT22;54122;53.538;49.366;2023-08-12T01:06:32;15.70;64.50
67196;DHT22;54122;53.538;49.366;2023-08-12T01:08:59;15.70;64.60
67196;DHT22;54122;53.538;49.366;2023-08-12T01:14:17;15.60;64.60
67196;DHT22;54122;53.538;49.366;2023-08-12T01:16:47;15.60;64.80
67196;DHT22;54122;53.538;49.366;2023-08-12T01:19:34;15.60;64.90
67196;DHT22;54122;53.538;49.366;2023-08-12T01:22:02;15.60;65.10
67196;DHT22;54122;53.538;49.366;2023-08-12T01:24:34;15.50;65.20
67196;DHT22;54122;53.538;49.366;2023-08-12T01:27:05;15.60;65.30
67196;DHT22;54122;53.538;49.366;2023-08-12T01:29:33;15.50;65.30
67196;DHT22;54122;53.538;49.366;2023-08-12T01:33:01;15.50;65.40
67196;DHT22;54122;53.538;49.366;2023-08-12T01:35:18;15.60;65.70
67196;DHT22;54122;53.538;49.366;2023-08-12T01:37:46;15.60;65.40
67196;DHT22;54122;53.538;49.366;2023-08-12T01:40:15;15.70;65.40
67196;DHT22;54122;53.538;49.366;2023-08-12T01:42:42;15.70;65.60
67196;DHT22;54122;53.538;49.366;2023-08-12T01:45:09;15.80;65.40
67196;DHT22;54122;53.538;49.366;2023-08-12T01:47:35;15.80;65.30
67196;DHT22;54122;53.538;49.366;2023-08-12T01:50:01;15.80;65.50
67196;DHT22;54122;53.538;49.366;2023-08-12T01:52:27;15.80;65.40
67196;DHT22;54122;53.538;49.366;2023-08-12T01:54:55;15.90;65.40
67196;DHT22;54122;53.538;49.366;2023-08-12T01:57:21;15.90;65.30
67196;DHT22;54122;53.538;49.366;2023-08-12T01:59:47;16.00;65.20
67196;DHT22;54122;53.538;49.366;2023-08-12T02:02:13;16.10;65.20
67196;DHT22;54122;53.538;49.366;2023-08-12T02:04:40;16.40;65.10
67196;DHT22;54122;53.538;49.366;2023-08-12T02:07:09;17.40;63.50
67196;DHT22;54122;53.538;49.366;2023-08-12T02:09:35;18.20;60.20
67196;DHT22;54122;53.538;49.366;2023-08-12T02:12:01;18.40;59.10
67196;DHT22;54122;53.538;49.366;2023-08-12T02:14:27;18.80;58.60
67196;DHT22;54122;53.538;49.366;2023-08-12T02:16:53;19.20;57.70
67196;DHT22;54122;53.538;49.366;2023-08-12T02:19:19;19.80;56.40
67196;DHT22;54122;53.538;49.366;2023-08-12T02:21:45;20.90;53.50
67196;DHT22;54122;53.538;49.366;2023-08-12T02:24:11;21.90;49.80
67196;DHT22;54122;53.538;49.366;2023-08-12T02:26:38;22.80;47.40
67196;DHT22;54122;53.538;49.366;2023-08-12T02:29:04;23.50;44.60
67196;DHT22;54122;53.538;49.366;2023-08-12T02:31:30;24.00;43.20
67196;DHT22;54122;53.538;49.366;2023-08-12T02:33:56;24.60;41.50
67196;DHT22;54122;53.538;49.366;2023-08-12T02:36:23;24.90;40.40
67196;DHT22;54122;53.538;49.366;2023-08-12T02:38:50;25.40;39.30
67196;DHT22;54122;53.538;49.366;2023-08-12T02:41:16;25.90;38.10
67196;DHT22;54122;53.538;49.366;2023-08-12T02:43:42;26.10;36.80
67196;DHT22;54122;53.538;49.366;2023-08-12T02:46:09;26.50;36.70
67196;DHT22;54122;53.538;49.366;2023-08-12T02:48:35;27.00;35.80
67196;DHT22;54122;53.538;49.366;2023-08-12T02:51:02;27.40;34.70
67196;DHT22;54122;53.538;49.366;2023-08-12T02:53:28;27.70;34.00
67196;DHT22;54122;53.538;49.366;2023-08-12T02:55:55;27.80;33.20
67196;DHT22;54122;53.538;49.366;2023-08-12T02:58:21;28.00;32.90
67196;DHT22;54122;53.538;49.366;2023-08-12T03:00:48;28.20;32.50
67196;DHT22;54122;53.538;49.366;2023-08-12T03:03:14;28.70;31.80
67196;DHT22;54122;53.538;49.366;2023-08-12T03:05:40;29.40;31.10
67196;DHT22;54122;53.538;49.366;2023-08-12T03:08:07;29.50;29.80
67196;DHT22;54122;53.538;49.366;2023-08-12T03:10:34;29.70;29.70
67196;DHT22;54122;53.538;49.366;2023-08-12T03:13:03;29.80;29.60
67196;DHT22;54122;53.538;49.366;2023-08-12T03:15:29;30.20;29.20
67196;DHT22;54122;53.538;49.366;2023-08-12T03:17:56;30.40;28.70
67196;DHT22;54122;53.538;49.366;2023-08-12T03:20:23;30.60;28.50
67196;DHT22;54122;53.538;49.366;2023-08-12T03:22:50;30.70;28.10
67196;DHT22;54122;53.538;49.366;2023-08-12T03:25:16;30.80;27.70
67196;DHT22;54122;53.538;49.366;2023-08-12T03:27:43;31.10;27.70
67196;DHT22;54122;53.538;49.366;2023-08-12T03:30:09;31.60;27.40
67196;DHT22;54122;53.538;49.366;2023-08-12T03:32:36;31.70;26.30
67196;DHT22;54122;53.538;49.366;2023-08-12T03:35:02;31.50;26.40
67196;DHT22;54122;53.538;49.366;2023-08-12T03:37:30;31.50;26.10
67196;DHT22;54122;53.538;49.366;2023-08-12T03:39:56;31.30;26.30
67196;DHT22;54122;53.538;49.366;2023-08-12T03:42:23;31.60;27.10
67196;DHT22;54122;53.538;49.366;2023-08-12T03:44:49;31.80;26.00
67196;DHT22;54122;53.538;49.366;2023-08-12T03:47:17;32.40;25.90
67196;DHT22;54122;53.538;49.366;2023-08-12T03:49:48;33.10;25.20
67196;DHT22;54122;53.538;49.366;2023-08-12T03:52:14;33.60;24.70
67196;DHT22;54122;53.538;49.366;2023-08-12T03:54:40;33.90;24.80
67196;DHT22;54122;53.538;49.366;2023-08-12T03:57:07;33.90;24.10
67196;DHT22;54122;53.538;49.366;2023-08-12T03:59:33;34.10;24.30
67196;DHT22;54122;53.538;49.366;2023-08-12T04:01:59;34.30;23.80
67196;DHT22;54122;53.538;49.366;2023-08-12T04:04:26;34.50;24.20
67196;DHT22;54122;53.538;49.366;2023-08-12T04:06:52;34.70;23.80
67196;DHT22;54122;53.538;49.366;2023-08-12T04:09:19;34.90;23.40
67196;DHT22;54122;53.538;49.366;2023-08-12T04:11:46;35.10;23.00
67196;DHT22;54122;53.538;49.366;2023-08-12T04:14:13;35.30;22.50
67196;DHT22;54122;53.538;49.366;2023-08-12T04:16:40;35.30;22.60
67196;DHT22;54122;53.538;49.366;2023-08-12T04:19:06;35.20;21.80
67196;DHT22;54122;53.538;49.366;2023-08-12T04:21:32;34.90;22.10
67196;DHT22;54122;53.538;49.366;2023-08-12T04:24:00;35.00;22.20
67196;DHT22;54122;53.538;49.366;2023-08-12T04:26:27;34.90;22.30
67196;DHT22;54122;53.538;49.366;2023-08-12T04:28:53;34.90;22.50
67196;DHT22;54122;53.538;49.366;2023-08-12T04:31:19;34.90;22.20
67196;DHT22;54122;53.538;49.366;2023-08-12T04:33:47;35.10;22.40
67196;DHT22;54122;53.538;49.366;2023-08-12T04:36:15;35.50;22.40
67196;DHT22;54122;53.538;49.366;2023-08-12T04:38:41;36.00;21.70
67196;DHT22;54122;53.538;49.366;2023-08-12T04:41:08;36.20;21.40
67196;DHT22;54122;53.538;49.366;2023-08-12T04:43:34;36.40;21.30
67196;DHT22;54122;53.538;49.366;2023-08-12T04:46:00;36.50;21.00
67196;DHT22;54122;53.538;49.366;2023-08-12T04:48:26;36.30;20.70
67196;DHT22;54122;53.538;49.366;2023-08-12T04:50:52;36.10;21.10
67196;DHT22;54122;53.538;49.366;2023-08-12T04:53:18;36.40;21.00
67196;DHT22;54122;53.538;49.366;2023-08-12T04:55:45;36.80;20.50
67196;DHT22;54122;53.538;49.366;2023-08-12T04:58:12;37.00;20.60
67196;DHT22;54122;53.538;49.366;2023-08-12T05:00:38;37.50;20.30
67196;DHT22;54122;53.538;49.366;2023-08-12T05:03:04;37.80;19.90
67196;DHT22;54122;53.538;49.366;2023-08-12T05:05:30;37.70;19.70
67196;DHT22;54122;53.538;49.366;2023-08-12T05:07:57;37.80;19.40
67196;DHT22;54122;53.538;49.366;2023-08-12T05:10:23;37.80;19.50
67196;DHT22;54122;53.538;49.366;2023-08-12T05:12:49;38.10;19.10
67196;DHT22;54122;53.538;49.366;2023-08-12T05:15:16;38.10;19.00
67196;DHT22;54122;53.538;49.366;2023-08-12T05:17:42;38.10;19.00
67196;DHT22;54122;53.538;49.366;2023-08-12T05:20:08;38.20;19.10
67196;DHT22;54122;53.538;49.366;2023-08-12T05:22:34;38.10;19.60
67196;DHT22;54122;53.538;49.366;2023-08-12T05:25:00;38.00;19.00
67196;DHT22;54122;53.538;49.366;2023-08-12T05:27:27;38.00;19.00
67196;DHT22;54122;53.538;49.366;2023-08-12T05:29:53;38.30;18.50
67196;DHT22;54122;53.538;49.366;2023-08-12T05:32:19;38.50;18.70
67196;DHT22;54122;53.538;49.366;2023-08-12T05:34:45;38.90;18.40
67196;DHT22;54122;53.538;49.366;2023-08-12T05:37:11;39.50;17.90
67196;DHT22;54122;53.538;49.366;2023-08-12T05:39:38;39.60;17.50
67196;DHT22;54122;53.538;49.366;2023-08-12T05:42:04;39.20;17.70
67196;DHT22;54122;53.538;49.366;2023-08-12T05:44:31;39.00;18.10
67196;DHT22;54122;53.538;49.366;2023-08-12T05:46:57;39.10;18.40
67196;DHT22;54122;53.538;49.366;2023-08-12T05:49:23;38.70;17.60
67196;DHT22;54122;53.538;49.366;2023-08-12T05:51:50;38.70;17.80
67196;DHT22;54122;53.538;49.366;2023-08-12T05:54:16;38.70;16.80
67196;DHT22;54122;53.538;49.366;2023-08-12T05:56:43;37.90;17.00
67196;DHT22;54122;53.538;49.366;2023-08-12T05:59:09;37.30;17.80
67196;DHT22;54122;53.538;49.366;2023-08-12T06:01:35;37.10;18.20
67196;DHT22;54122;53.538;49.366;2023-08-12T06:04:02;37.50;18.00
67196;DHT22;54122;53.538;49.366;2023-08-12T06:06:28;37.90;17.70
67196;DHT22;54122;53.538;49.366;2023-08-12T06:08:55;38.20;17.50
67196;DHT22;54122;53.538;49.366;2023-08-12T06:11:21;38.50;17.40
67196;DHT22;54122;53.538;49.366;2023-08-12T06:13:47;38.90;17.20
67196;DHT22;54122;53.538;49.366;2023-08-12T06:16:14;38.90;16.70
67196;DHT22;54122;53.538;49.366;2023-08-12T06:18:40;38.60;16.90
67196;DHT22;54122;53.538;49.366;2023-08-12T06:21:07;38.80;17.10
67196;DHT22;54122;53.538;49.366;2023-08-12T06:23:33;39.10;16.80
67196;DHT22;54122;53.538;49.366;2023-08-12T06:25:59;39.10;16.40
67196;DHT22;54122;53.538;49.366;2023-08-12T06:28:26;38.70;16.40
67196;DHT22;54122;53.538;49.366;2023-08-12T06:30:52;38.50;16.80
67196;DHT22;54122;53.538;49.366;2023-08-12T06:33:19;38.40;16.30
67196;DHT22;54122;53.538;49.366;2023-08-12T06:35:45;38.00;16.80
67196;DHT22;54122;53.538;49.366;2023-08-12T06:38:11;37.90;16.60
67196;DHT22;54122;53.538;49.366;2023-08-12T06:40:39;37.60;17.70
67196;DHT22;54122;53.538;49.366;2023-08-12T06:43:05;37.60;17.10
67196;DHT22;54122;53.538;49.366;2023-08-12T06:45:33;37.70;16.70
67196;DHT22;54122;53.538;49.366;2023-08-12T06:47:59;37.80;17.20
67196;DHT22;54122;53.538;49.366;2023-08-12T06:50:25;38.10;17.00
67196;DHT22;54122;53.538;49.366;2023-08-12T06:52:51;38.30;16.50
67196;DHT22;54122;53.538;49.366;2023-08-12T06:55:18;38.30;16.40
67196;DHT22;54122;53.538;49.366;2023-08-12T06:57:44;38.20;16.40
67196;DHT22;54122;53.538;49.366;2023-08-12T07:00:10;38.10;16.80
67196;DHT22;54122;53.538;49.366;2023-08-12T07:02:37;38.00;16.70
67196;DHT22;54122;53.538;49.366;2023-08-12T07:05:03;38.30;16.50
67196;DHT22;54122;53.538;49.366;2023-08-12T07:07:29;38.50;16.00
67196;DHT22;54122;53.538;49.366;2023-08-12T07:09:55;38.30;16.00
67196;DHT22;54122;53.538;49.366;2023-08-12T07:12:21;38.20;16.50
67196;DHT22;54122;53.538;49.366;2023-08-12T07:14:47;37.80;16.60
67196;DHT22;54122;53.538;49.366;2023-08-12T07:17:13;37.50;16.70
67196;DHT22;54122;53.538;49.366;2023-08-12T07:19:40;37.30;16.80
67196;DHT22;54122;53.538;49.366;2023-08-12T07:22:06;37.50;16.70
67196;DHT22;54122;53.538;49.366;2023-08-12T07:24:32;38.00;16.60
67196;DHT22;54122;53.538;49.366;2023-08-12T07:26:58;37.70;16.40
67196;DHT22;54122;53.538;49.366;2023-08-12T07:29:24;37.10;16.90
67196;DHT22;54122;53.538;49.366;2023-08-12T07:31:52;37.10;17.50
67196;DHT22;54122;53.538;49.366;2023-08-12T07:34:18;37.40;16.80
67196;DHT22;54122;53.538;49.366;2023-08-12T07:36:44;37.70;16.90
67196;DHT22;54122;53.538;49.366;2023-08-12T07:39:11;38.00;16.50
67196;DHT22;54122;53.538;49.366;2023-08-12T07:41:38;38.30;16.10
67196;DHT22;54122;53.538;49.366;2023-08-12T07:44:04;38.20;16.20
67196;DHT22;54122;53.538;49.366;2023-08-12T07:46:31;37.90;16.30
67196;DHT22;54122;53.538;49.366;2023-08-12T07:48:57;37.70;16.40
67196;DHT22;54122;53.538;49.366;2023-08-12T07:51:23;37.50;16.20
67196;DHT22;54122;53.538;49.366;2023-08-12T07:53:50;37.00;16.30
67196;DHT22;54122;53.538;49.366;2023-08-12T07:56:16;36.90;16.60
67196;DHT22;54122;53.538;49.366;2023-08-12T07:58:42;36.90;16.50
67196;DHT22;54122;53.538;49.366;2023-08-12T08:01:09;37.20;16.40
67196;DHT22;54122;53.538;49.366;2023-08-12T08:03:36;37.60;16.30
67196;DHT22;54122;53.538;49.366;2023-08-12T08:06:02;37.60;16.40
67196;DHT22;54122;53.538;49.366;2023-08-12T08:08:28;37.70;15.80
67196;DHT22;54122;53.538;49.366;2023-08-12T08:10:55;37.10;16.30
67196;DHT22;54122;53.538;49.366;2023-08-12T08:13:21;37.10;16.60
67196;DHT22;54122;53.538;49.366;2023-08-12T08:15:47;37.50;16.40
67196;DHT22;54122;53.538;49.366;2023-08-12T08:18:14;37.50;16.30
67196;DHT22;54122;53.538;49.366;2023-08-12T08:20:42;37.10;16.60
67196;DHT22;54122;53.538;49.366;2023-08-12T08:23:09;36.80;16.80
67196;DHT22;54122;53.538;49.366;2023-08-12T08:25:35;36.50;17.00
67196;DHT22;54122;53.538;49.366;2023-08-12T08:28:02;36.60;17.50
67196;DHT22;54122;53.538;49.366;2023-08-12T08:30:29;36.70;17.30
67196;DHT22;54122;53.538;49.366;2023-08-12T08:32:55;37.00;17.50
67196;DHT22;54122;53.538;49.366;2023-08-12T08:35:22;37.30;17.10
67196;DHT22;54122;53.538;49.366;2023-08-12T08:37:48;37.50;16.60
67196;DHT22;54122;53.538;49.366;2023-08-12T08:40:14;37.40;16.50
67196;DHT22;54122;53.538;49.366;2023-08-12T08:42:43;37.10;16.50
67196;DHT22;54122;53.538;49.366;2023-08-12T08:45:13;36.90;17.00
67196;DHT22;54122;53.538;49.366;2023-08-12T08:47:41;36.90;16.80
67196;DHT22;54122;53.538;49.366;2023-08-12T08:50:09;36.70;16.90
67196;DHT22;54122;53.538;49.366;2023-08-12T08:52:37;36.90;17.10
67196;DHT22;54122;53.538;49.366;2023-08-12T08:55:04;37.00;16.80
67196;DHT22;54122;53.538;49.366;2023-08-12T08:57:31;36.90;17.20
67196;DHT22;54122;53.538;49.366;2023-08-12T08:59:58;37.20;17.30
67196;DHT22;54122;53.538;49.366;2023-08-12T09:02:25;37.60;17.20
67196;DHT22;54122;53.538;49.366;2023-08-12T09:04:52;37.90;16.70
67196;DHT22;54122;53.538;49.366;2023-08-12T09:07:19;37.80;16.10
67196;DHT22;54122;53.538;49.366;2023-08-12T09:09:47;37.40;16.40
67196;DHT22;54122;53.538;49.366;2023-08-12T09:12:16;37.40;16.30
67196;DHT22;54122;53.538;49.366;2023-08-12T09:14:43;37.50;16.20
67196;DHT22;54122;53.538;49.366;2023-08-12T09:17:10;37.60;16.00
67196;DHT22;54122;53.538;49.366;2023-08-12T09:19:37;37.10;16.30
67196;DHT22;54122;53.538;49.366;2023-08-12T09:22:04;36.80;16.80
67196;DHT22;54122;53.538;49.366;2023-08-12T09:24:35;36.80;16.60
67196;DHT22;54122;53.538;49.366;2023-08-12T09:27:01;36.30;16.70
67196;DHT22;54122;53.538;49.366;2023-08-12T09:29:32;35.30;17.40
67196;DHT22;54122;53.538;49.366;2023-08-12T09:32:25;34.80;18.50
67196;DHT22;54122;53.538;49.366;2023-08-12T09:34:53;34.60;18.50
67196;DHT22;54122;53.538;49.366;2023-08-12T09:37:21;34.60;18.70
67196;DHT22;54122;53.538;49.366;2023-08-12T09:39:48;34.40;19.30
67196;DHT22;54122;53.538;49.366;2023-08-12T09:42:16;34.10;19.40
67196;DHT22;54122;53.538;49.366;2023-08-12T09:44:43;33.80;19.80
67196;DHT22;54122;53.538;49.366;2023-08-12T09:47:09;33.60;19.50
67196;DHT22;54122;53.538;49.366;2023-08-12T09:49:36;33.50;20.00
67196;DHT22;54122;53.538;49.366;2023-08-12T09:52:04;33.30;19.90
67196;DHT22;54122;53.538;49.366;2023-08-12T09:54:37;33.10;20.30
67196;DHT22;54122;53.538;49.366;2023-08-12T09:57:04;33.00;20.50
67196;DHT22;54122;53.538;49.366;2023-08-12T09:59:34;32.80;20.30
67196;DHT22;54122;53.538;49.366;2023-08-12T10:02:02;32.40;20.70
67196;DHT22;54122;53.538;49.366;2023-08-12T10:04:42;32.20;21.00
67196;DHT22;54122;53.538;49.366;2023-08-12T10:07:11;32.00;21.00
67196;DHT22;54122;53.538;49.366;2023-08-12T10:09:39;31.90;21.10
67196;DHT22;54122;53.538;49.366;2023-08-12T10:12:09;31.80;21.30
67196;DHT22;54122;53.538;49.366;2023-08-12T10:14:36;31.70;21.60
67196;DHT22;54122;53.538;49.366;2023-08-12T10:17:03;31.60;21.60
67196;DHT22;54122;53.538;49.366;2023-08-12T10:19:30;31.60;21.60
67196;DHT22;54122;53.538;49.366;2023-08-12T10:21:59;31.70;21.60
67196;DHT22;54122;53.538;49.366;2023-08-12T10:24:29;31.50;22.00
67196;DHT22;54122;53.538;49.366;2023-08-12T10:26:55;31.50;22.00
67196;DHT22;54122;53.538;49.366;2023-08-12T10:29:25;31.50;22.20
67196;DHT22;54122;53.538;49.366;2023-08-12T10:31:51;31.60;21.80
67196;DHT22;54122;53.538;49.366;2023-08-12T10:34:27;31.50;21.70
67196;DHT22;54122;53.538;49.366;2023-08-12T10:36:58;31.50;22.00
67196;DHT22;54122;53.538;49.366;2023-08-12T10:39:27;31.50;21.70
67196;DHT22;54122;53.538;49.366;2023-08-12T10:41:57;31.40;21.80
67196;DHT22;54122;53.538;49.366;2023-08-12T10:44:50;31.30;21.80
67196;DHT22;54122;53.538;49.366;2023-08-12T10:47:17;31.20;21.80
67196;DHT22;54122;53.538;49.366;2023-08-12T10:49:48;31.10;22.00
67196;DHT22;54122;53.538;49.366;2023-08-12T10:54:54;31.30;22.10
67196;DHT22;54122;53.538;49.366;2023-08-12T10:57:37;31.40;21.80
67196;DHT22;54122;53.538;49.366;2023-08-12T11:00:11;31.40;22.10
67196;DHT22;54122;53.538;49.366;2023-08-12T11:02:39;31.50;22.10
67196;DHT22;54122;53.538;49.366;2023-08-12T11:05:09;31.50;22.00
67196;DHT22;54122;53.538;49.366;2023-08-12T11:07:43;31.30;21.80
67196;DHT22;54122;53.538;49.366;2023-08-12T11:12:36;31.30;22.00
67196;DHT22;54122;53.538;49.366;2023-08-12T11:15:05;31.30;22.00
67196;DHT22;54122;53.538;49.366;2023-08-12T11:17:37;31.30;21.80
67196;DHT22;54122;53.538;49.366;2023-08-12T11:20:06;31.30;21.70
67196;DHT22;54122;53.538;49.366;2023-08-12T11:22:36;31.30;21.90
67196;DHT22;54122;53.538;49.366;2023-08-12T11:25:11;31.20;22.00
67196;DHT22;54122;53.538;49.366;2023-08-12T11:27:43;31.20;22.10
67196;DHT22;54122;53.538;49.366;2023-08-12T11:30:13;31.30;22.10
67196;DHT22;54122;53.538;49.366;2023-08-12T11:32:43;31.20;22.00
67196;DHT22;54122;53.538;49.366;2023-08-12T11:35:11;31.10;22.00
67196;DHT22;54122;53.538;49.366;2023-08-12T11:37:38;31.30;22.10
67196;DHT22;54122;53.538;49.366;2023-08-12T11:40:06;31.30;22.20
67196;DHT22;54122;53.538;49.366;2023-08-12T11:42:40;31.40;22.00
67196;DHT22;54122;53.538;49.366;2023-08-12T11:45:07;31.30;22.00
67196;DHT22;54122;53.538;49.366;2023-08-12T11:47:35;31.10;22.10
67196;DHT22;54122;53.538;49.366;2023-08-12T11:50:05;31.10;22.30
67196;DHT22;54122;53.538;49.366;2023-08-12T11:52:32;31.10;22.40
67196;DHT22;54122;53.538;49.366;2023-08-12T11:55:00;31.10;22.30
67196;DHT22;54122;53.538;49.366;2023-08-12T11:57:27;31.20;22.40
67196;DHT22;54122;53.538;49.366;2023-08-12T12:00:01;31.20;22.40
67196;DHT22;54122;53.538;49.366;2023-08-12T12:02:30;31.20;22.30
67196;DHT22;54122;53.538;49.366;2023-08-12T12:04:56;31.20;22.50
67196;DHT22;54122;53.538;49.366;2023-08-12T12:07:26;31.30;22.50
67196;DHT22;54122;53.538;49.366;2023-08-12T12:09:54;31.30;22.50
67196;DHT22;54122;53.538;49.366;2023-08-12T12:12:24;31.30;22.60
67196;DHT22;54122;53.538;49.366;2023-08-12T12:14:52;31.20;22.30
67196;DHT22;54122;53.538;49.366;2023-08-12T12:17:24;31.10;22.30
67196;DHT22;54122;53.538;49.366;2023-08-12T12:19:57;31.00;22.60
67196;DHT22;54122;53.538;49.366;2023-08-12T12:22:33;31.00;22.70
67196;DHT22;54122;53.538;49.366;2023-08-12T12:25:04;31.00;23.00
67196;DHT22;54122;53.538;49.366;2023-08-12T12:27:32;31.10;22.90
67196;DHT22;54122;53.538;49.366;2023-08-12T12:30:00;31.20;22.80
67196;DHT22;54122;53.538;49.366;2023-08-12T12:32:26;31.20;22.70
67196;DHT22;54122;53.538;49.366;2023-08-12T12:34:53;31.20;22.60
67196;DHT22;54122;53.538;49.366;2023-08-12T12:37:21;31.20;22.60
67196;DHT22;54122;53.538;49.366;2023-08-12T12:39:47;31.20;22.70
67196;DHT22;54122;53.538;49.366;2023-08-12T12:42:13;31.20;22.50
67196;DHT22;54122;53.538;49.366;2023-08-12T12:44:40;31.30;22.30
67196;DHT22;54122;53.538;49.366;2023-08-12T12:47:06;31.30;22.10
67196;DHT22;54122;53.538;49.366;2023-08-12T12:49:33;31.20;22.20
67196;DHT22;54122;53.538;49.366;2023-08-12T12:52:00;31.10;22.30
67196;DHT22;54122;53.538;49.366;2023-08-12T12:54:26;31.10;22.30
67196;DHT22;54122;53.538;49.366;2023-08-12T12:56:52;31.10;22.40
67196;DHT22;54122;53.538;49.366;2023-08-12T12:59:19;31.00;22.40
67196;DHT22;54122;53.538;49.366;2023-08-12T13:01:45;31.00;22.20
67196;DHT22;54122;53.538;49.366;2023-08-12T13:04:12;31.00;22.40
67196;DHT22;54122;53.538;49.366;2023-08-12T13:06:38;30.90;22.30
67196;DHT22;54122;53.538;49.366;2023-08-12T13:09:04;30.80;22.40
67196;DHT22;54122;53.538;49.366;2023-08-12T13:11:33;30.80;22.50
67196;DHT22;54122;53.538;49.366;2023-08-12T13:14:03;30.80;22.50
67196;DHT22;54122;53.538;49.366;2023-08-12T13:16:30;30.70;22.40
67196;DHT22;54122;53.538;49.366;2023-08-12T13:18:56;30.60;22.30
67196;DHT22;54122;53.538;49.366;2023-08-12T13:21:26;30.50;22.40
67196;DHT22;54122;53.538;49.366;2023-08-12T13:23:53;30.50;22.40
67196;DHT22;54122;53.538;49.366;2023-08-12T13:26:21;30.50;22.30
67196;DHT22;54122;53.538;49.366;2023-08-12T13:28:47;30.50;22.40
67196;DHT22;54122;53.538;49.366;2023-08-12T13:31:14;30.50;22.60
67196;DHT22;54122;53.538;49.366;2023-08-12T13:33:43;30.60;22.50
67196;DHT22;54122;53.538;49.366;2023-08-12T13:36:12;30.60;22.30
67196;DHT22;54122;53.538;49.366;2023-08-12T13:38:38;30.60;22.20
67196;DHT22;54122;53.538;49.366;2023-08-12T13:41:04;30.60;22.30
67196;DHT22;54122;53.538;49.366;2023-08-12T13:43:30;30.60;22.30
67196;DHT22;54122;53.538;49.366;2023-08-12T13:45:56;30.50;22.30
67196;DHT22;54122;53.538;49.366;2023-08-12T13:48:23;30.50;22.50
67196;DHT22;54122;53.538;49.366;2023-08-12T13:50:49;30.50;22.30
67196;DHT22;54122;53.538;49.366;2023-08-12T13:53:16;30.40;22.50
67196;DHT22;54122;53.538;49.366;2023-08-12T13:55:42;30.30;22.50
67196;DHT22;54122;53.538;49.366;2023-08-12T13:58:08;30.30;22.50
67196;DHT22;54122;53.538;49.366;2023-08-12T14:00:35;30.40;22.40
67196;DHT22;54122;53.538;49.366;2023-08-12T14:03:01;30.30;22.30
67196;DHT22;54122;53.538;49.366;2023-08-12T14:05:27;30.10;22.30
67196;DHT22;54122;53.538;49.366;2023-08-12T14:07:53;30.00;22.50
67196;DHT22;54122;53.538;49.366;2023-08-12T14:10:19;30.00;22.70
67196;DHT22;54122;53.538;49.366;2023-08-12T14:12:46;29.90;22.80
67196;DHT22;54122;53.538;49.366;2023-08-12T14:15:14;29.90;23.00
67196;DHT22;54122;53.538;49.366;2023-08-12T14:17:40;29.90;23.20
67196;DHT22;54122;53.538;49.366;2023-08-12T14:20:07;29.80;23.10
67196;DHT22;54122;53.538;49.366;2023-08-12T14:22:36;29.80;23.20
67196;DHT22;54122;53.538;49.366;2023-08-12T14:25:03;29.70;23.60
67196;DHT22;54122;53.538;49.366;2023-08-12T14:27:30;29.60;23.50
67196;DHT22;54122;53.538;49.366;2023-08-12T14:29:56;29.60;23.60
67196;DHT22;54122;53.538;49.366;2023-08-12T14:32:22;29.50;23.70
67196;DHT22;54122;53.538;49.366;2023-08-12T14:34:48;29.40;23.60
67196;DHT22;54122;53.538;49.366;2023-08-12T14:37:15;29.30;23.90
67196;DHT22;54122;53.538;49.366;2023-08-12T14:39:42;29.20;23.80
67196;DHT22;54122;53.538;49.366;2023-08-12T14:42:08;29.20;23.70
67196;DHT22;54122;53.538;49.366;2023-08-12T14:44:36;29.10;23.80
67196;DHT22;54122;53.538;49.366;2023-08-12T14:47:04;28.90;23.80
67196;DHT22;54122;53.538;49.366;2023-08-12T14:49:30;28.80;23.90
67196;DHT22;54122;53.538;49.366;2023-08-12T14:51:56;28.80;24.10
67196;DHT22;54122;53.538;49.366;2023-08-12T14:54:23;28.60;24.10
67196;DHT22;54122;53.538;49.366;2023-08-12T14:56:49;28.50;24.30
67196;DHT22;54122;53.538;49.366;2023-08-12T14:59:16;28.50;24.30
67196;DHT22;54122;53.538;49.366;2023-08-12T15:01:42;28.40;24.60
67196;DHT22;54122;53.538;49.366;2023-08-12T15:04:08;28.30;24.70
67196;DHT22;54122;53.538;49.366;2023-08-12T15:06:35;28.20;24.60
67196;DHT22;54122;53.538;49.366;2023-08-12T15:09:01;28.20;24.70
67196;DHT22;54122;53.538;49.366;2023-08-12T15:11:28;28.10;25.00
67196;DHT22;54122;53.538;49.366;2023-08-12T15:13:55;28.00;25.30
67196;DHT22;54122;53.538;49.366;2023-08-12T15:16:21;27.90;25.50
67196;DHT22;54122;53.538;49.366;2023-08-12T15:18:47;27.70;25.80
67196;DHT22;54122;53.538;49.366;2023-08-12T15:21:14;27.60;26.00
67196;DHT22;54122;53.538;49.366;2023-08-12T15:23:42;27.50;26.50